Time;durP1;ratioP1;P1;durP2;ratioP2;P2;SDS_P1;SDS_P2;PMS_P1;PMS_P2;Temp;Humidity;BMP_temperature;BMP_pressure;BME280_temperature;BME280_humidity;BME280_pressure;Samples;Min_cycle;Max_cycle;Signal;HPM_P1;HPM_P2
2022/11/13 00:01:25;;;;;;;7.78;4.50;;;;;;;8.41;92.29;102305.97;5018394;28;20076;-72
2022/11/13 00:04:09;;;;;;;12.77;4.32;;;;;;;8.45;91.99;102297.03;5028806;28;20124;-70
2022/11/13 00:06:53;;;;;;;7.05;4.15;;;;;;;8.46;91.87;102300.53;5019709;28;20059;-72
2022/11/13 00:09:38;;;;;;;7.20;3.95;;;;;;;8.51;91.79;102290.47;5019463;28;20127;-72
2022/11/13 00:12:22;;;;;;;7.30;4.28;;;;;;;8.52;91.34;102292.03;5022127;28;20092;-72
2022/11/13 00:15:06;;;;;;;7.68;4.22;;;;;;;8.49;91.41;102292.66;5013716;28;20100;-72
2022/11/13 00:17:51;;;;;;;10.18;4.22;;;;;;;8.55;91.71;102296.84;5016368;28;20509;-72
2022/11/13 00:20:35;;;;;;;5.88;3.95;;;;;;;8.63;91.69;102300.69;5013642;28;20536;-71
2022/11/13 00:23:19;;;;;;;6.35;3.38;;;;;;;8.59;92.02;102300.50;5014588;28;20047;-72
2022/11/13 00:26:14;;;;;;;7.85;4.20;;;;;;;8.63;92.25;102298.78;5019033;28;20092;-72
2022/11/13 00:29:00;;;;;;;10.35;5.45;;;;;;;8.56;92.33;102289.53;5013988;28;20127;-72
2022/11/13 00:31:44;;;;;;;7.88;5.00;;;;;;;8.60;92.45;102287.84;5022037;28;20417;-72
2022/11/13 00:34:28;;;;;;;11.18;4.70;;;;;;;8.55;92.20;102296.84;5027262;28;20087;-72
2022/11/13 00:37:12;;;;;;;10.70;4.20;;;;;;;8.50;92.42;102275.44;5020642;28;20079;-72
2022/11/13 00:39:56;;;;;;;8.85;4.45;;;;;;;8.63;92.37;102276.53;5023055;28;20045;-72
2022/11/13 00:42:40;;;;;;;10.50;4.55;;;;;;;8.64;92.41;102278.09;5027665;28;20607;-72
2022/11/13 00:45:24;;;;;;;8.27;4.28;;;;;;;8.55;92.67;102272.66;5029119;28;20079;-71
2022/11/13 00:48:08;;;;;;;9.13;4.20;;;;;;;8.49;93.35;102271.19;5027286;28;20126;-71
2022/11/13 00:50:52;;;;;;;8.90;4.07;;;;;;;8.56;92.48;102271.56;5044742;28;20048;-71
2022/11/13 00:53:36;;;;;;;6.25;4.10;;;;;;;8.60;92.65;102277.91;5030791;28;20080;-71
2022/11/13 00:56:20;;;;;;;7.25;4.30;;;;;;;8.62;92.36;102277.59;5025812;28;20069;-71
2022/11/13 00:59:04;;;;;;;7.63;4.13;;;;;;;8.70;92.05;102280.38;5024436;28;20470;-71
2022/11/13 01:01:48;;;;;;;6.15;3.88;;;;;;;8.72;92.30;102285.44;5030335;28;20129;-72
2022/11/13 01:04:32;;;;;;;12.93;4.72;;;;;;;8.73;92.35;102281.69;5028289;28;20056;-72
2022/11/13 01:07:16;;;;;;;8.68;4.40;;;;;;;8.79;92.33;102280.44;5020959;28;20551;-72
2022/11/13 01:10:02;;;;;;;7.63;5.13;;;;;;;8.83;92.10;102282.25;5019291;28;20132;-70
2022/11/13 01:12:45;;;;;;;9.55;4.63;;;;;;;8.89;92.01;102270.28;5029225;28;20095;-72
2022/11/13 01:15:30;;;;;;;9.52;4.78;;;;;;;8.89;91.95;102269.50;5025751;28;20450;-72
2022/11/13 01:18:13;;;;;;;9.35;4.30;;;;;;;8.92;91.97;102269.69;5025621;28;20059;-72
2022/11/13 01:21:19;;;;;;;9.77;5.07;;;;;;;8.85;92.34;102263.94;5023486;28;20048;-72
2022/11/13 01:24:03;;;;;;;8.30;4.18;;;;;;;8.85;92.56;102261.25;5039021;28;20052;-72
2022/11/13 01:26:46;;;;;;;8.80;4.03;;;;;;;8.95;92.28;102262.91;5031066;28;20512;-72
2022/11/13 01:29:30;;;;;;;8.73;4.78;;;;;;;8.89;92.63;102269.50;5029983;28;20092;-72
2022/11/13 01:32:14;;;;;;;12.95;5.25;;;;;;;8.89;92.53;102272.19;5026425;28;20703;-72
2022/11/13 01:34:58;;;;;;;10.20;5.45;;;;;;;8.86;92.53;102268.22;5028421;28;20135;-72
2022/11/13 01:37:42;;;;;;;10.38;4.78;;;;;;;8.91;92.55;102265.41;5025830;28;20057;-72
2022/11/13 01:40:26;;;;;;;8.48;4.88;;;;;;;8.81;92.89;102262.16;5020858;28;20703;-72
2022/11/13 01:43:25;;;;;;;7.35;4.65;;;;;;;8.84;93.06;102266.94;5029795;28;20052;-72
2022/11/13 01:46:21;;;;;;;9.63;5.28;;;;;;;8.78;93.34;102255.50;5034461;28;20134;-72
2022/11/13 01:49:11;;;;;;;14.32;5.30;;;;;;;8.71;93.55;102252.44;5024154;28;20076;-70
2022/11/13 01:51:59;;;;;;;13.55;4.95;;;;;;;8.75;93.61;102250.72;5030051;28;20186;-72
2022/11/13 01:54:48;;;;;;;11.05;4.90;;;;;;;8.73;93.49;102252.91;5029656;28;20413;-71
2022/11/13 01:57:32;;;;;;;6.72;4.30;;;;;;;8.75;93.89;102248.03;5025720;28;20045;-71
2022/11/13 02:00:16;;;;;;;10.13;4.72;;;;;;;8.73;93.40;102255.59;5027167;28;20442;-72
2022/11/13 02:03:00;;;;;;;7.28;4.95;;;;;;;8.69;93.70;102240.41;5042783;22;21246;-65
2022/11/13 02:05:44;;;;;;;10.40;4.72;;;;;;;8.66;94.18;102243.69;5007216;28;20057;-65
2022/11/13 02:08:28;;;;;;;8.35;4.40;;;;;;;8.69;93.98;102238.50;5003300;28;20048;-65
2022/11/13 02:11:12;;;;;;;9.50;4.97;;;;;;;8.77;93.67;102243.16;5007407;28;20051;-65
2022/11/13 02:13:57;;;;;;;9.32;4.32;;;;;;;8.88;93.37;102247.19;5007648;28;20050;-65
2022/11/13 02:16:45;;;;;;;8.35;4.43;;;;;;;8.81;93.38;102238.78;5003947;28;20056;-65
2022/11/13 02:19:33;;;;;;;12.02;5.18;;;;;;;8.79;93.55;102232.91;5007498;28;20042;-65
2022/11/13 02:22:41;;;;;;;10.25;4.82;;;;;;;8.76;93.53;102230.84;5008136;28;20117;-64
2022/11/13 02:25:28;;;;;;;8.57;4.47;;;;;;;8.70;93.87;102226.69;4999319;28;20044;-65
2022/11/13 02:28:13;;;;;;;9.77;5.22;;;;;;;8.80;93.79;102229.13;5005386;28;20045;-65
2022/11/13 02:31:09;;;;;;;9.85;4.22;;;;;;;8.87;93.18;102224.13;5010531;28;20048;-64
2022/11/13 02:33:53;;;;;;;11.18;4.50;;;;;;;8.83;93.29;102225.84;4998199;28;20082;-65
2022/11/13 02:36:37;;;;;;;12.57;5.13;;;;;;;8.80;93.04;102217.59;5012622;28;20044;-65
2022/11/13 02:39:21;;;;;;;8.13;4.53;;;;;;;8.70;93.84;102223.19;4997584;28;20095;-65
2022/11/13 02:42:05;;;;;;;9.45;4.80;;;;;;;8.68;94.01;102218.13;5005030;28;20141;-65
2022/11/13 02:44:49;;;;;;;8.95;4.82;;;;;;;8.71;93.96;102225.56;5004018;28;20491;-65
2022/11/13 02:47:33;;;;;;;12.85;5.22;;;;;;;8.70;93.91;102228.56;5009324;28;20091;-65
2022/11/13 02:50:17;;;;;;;10.23;4.75;;;;;;;8.66;94.14;102228.38;5008156;28;20128;-64
2022/11/13 02:53:02;;;;;;;6.53;3.80;;;;;;;8.62;94.37;102216.66;5003707;28;20053;-64
2022/11/13 02:55:47;;;;;;;10.40;4.90;;;;;;;8.64;94.57;102219.03;5006152;28;20495;-64
2022/11/13 02:58:30;;;;;;;12.70;4.63;;;;;;;8.63;94.58;102217.47;5011306;28;20048;-65
2022/11/13 03:01:14;;;;;;;11.43;5.07;;;;;;;8.65;94.57;102221.41;4996659;28;20101;-65
2022/11/13 03:03:59;;;;;;;10.05;4.82;;;;;;;8.63;94.51;102223.59;5004867;28;20137;-65
2022/11/13 03:06:43;;;;;;;8.60;4.65;;;;;;;8.70;94.61;102218.63;5010823;28;20560;-65
2022/11/13 03:09:27;;;;;;;12.52;4.60;;;;;;;8.62;94.54;102221.22;5010641;28;20041;-65
2022/11/13 03:12:11;;;;;;;11.90;5.13;;;;;;;8.54;94.62;102212.00;5009632;28;20603;-65
2022/11/13 03:14:55;;;;;;;7.97;4.38;;;;;;;8.55;94.76;102210.13;5006043;28;20048;-65
2022/11/13 03:17:39;;;;;;;9.25;4.88;;;;;;;8.61;94.83;102208.91;4998937;28;20074;-65
2022/11/13 03:20:23;;;;;;;11.25;4.43;;;;;;;8.67;93.95;102213.84;5009646;28;20068;-65
2022/11/13 03:23:07;;;;;;;16.58;5.95;;;;;;;8.65;94.08;102207.22;5015209;28;20523;-65
2022/11/13 03:25:51;;;;;;;7.28;4.50;;;;;;;8.62;94.24;102205.91;5004579;28;20107;-65
2022/11/13 03:28:36;;;;;;;8.57;4.55;;;;;;;8.66;94.02;102206.91;5009125;28;20107;-65
2022/11/13 03:31:20;;;;;;;7.70;4.72;;;;;;;8.65;94.01;102199.94;5005635;28;20418;-65
2022/11/13 03:34:04;;;;;;;10.50;5.55;;;;;;;8.63;93.80;102202.13;5012147;28;20421;-65
2022/11/13 03:36:48;;;;;;;7.93;4.05;;;;;;;8.58;94.07;102196.06;5010090;28;20525;-65
2022/11/13 03:39:32;;;;;;;10.63;5.30;;;;;;;8.52;94.05;102200.75;5012129;28;20052;-65
2022/11/13 03:42:16;;;;;;;9.10;4.82;;;;;;;8.46;93.89;102204.66;5010304;28;20413;-65
2022/11/13 03:45:00;;;;;;;11.52;5.13;;;;;;;8.36;94.10;102204.09;5003712;28;20593;-65
2022/11/13 03:47:44;;;;;;;8.50;4.50;;;;;;;8.39;94.21;102195.44;5019648;28;20064;-65
2022/11/13 03:50:28;;;;;;;8.15;4.38;;;;;;;8.38;94.15;102194.63;5012253;28;20044;-65
2022/11/13 03:53:16;;;;;;;9.20;4.45;;;;;;;8.40;93.98;102199.72;5010730;28;20056;-65
2022/11/13 03:56:03;;;;;;;8.68;4.75;;;;;;;8.40;94.35;102197.81;5010480;28;20052;-65
2022/11/13 03:58:47;;;;;;;8.70;4.88;;;;;;;8.30;94.50;102190.00;5012605;28;20452;-65
2022/11/13 04:01:31;;;;;;;8.95;5.57;;;;;;;8.26;94.39;102180.16;5020861;28;20099;-65
2022/11/13 04:04:15;;;;;;;9.68;5.45;;;;;;;8.31;94.30;102175.47;5011800;28;20104;-65
2022/11/13 04:06:58;;;;;;;15.82;4.30;;;;;;;8.30;94.89;102181.13;5013110;28;20079;-65
2022/11/13 04:09:42;;;;;;;10.38;5.75;;;;;;;8.38;94.54;102175.06;5015233;28;20048;-65
2022/11/13 04:12:26;;;;;;;8.80;5.47;;;;;;;8.35;94.35;102167.59;5016842;28;20099;-65
2022/11/13 04:15:10;;;;;;;8.13;4.00;;;;;;;8.30;94.40;102170.41;5002126;28;20139;-65
2022/11/13 04:17:54;;;;;;;8.18;4.38;;;;;;;8.38;94.46;102167.78;5007729;28;20127;-65
2022/11/13 04:20:38;;;;;;;9.38;5.03;;;;;;;8.36;94.58;102158.47;5004259;28;20054;-65
2022/11/13 04:23:22;;;;;;;11.55;5.78;;;;;;;8.44;94.47;102155.84;5010057;28;20099;-65
2022/11/13 04:26:05;;;;;;;9.43;5.07;;;;;;;8.48;94.23;102164.88;5013677;28;20048;-65
2022/11/13 04:28:49;;;;;;;8.98;4.30;;;;;;;8.52;93.72;102157.81;5017064;28;20088;-64
2022/11/13 04:31:33;;;;;;;10.50;4.55;;;;;;;8.46;93.90;102152.88;5014868;28;20053;-65
2022/11/13 04:34:17;;;;;;;11.88;5.22;;;;;;;8.47;94.03;102162.50;5009303;28;20517;-65
2022/11/13 04:37:01;;;;;;;9.77;5.50;;;;;;;8.51;94.14;102166.19;5008993;28;20449;-64
2022/11/13 04:39:45;;;;;;;13.35;5.18;;;;;;;8.37;94.89;102163.53;5024721;28;20521;-65
2022/11/13 04:42:48;;;;;;;6.55;4.15;;;;;;;8.50;94.45;102161.88;5012311;28;20088;-65
2022/11/13 04:45:33;;;;;;;6.47;3.88;;;;;;;8.57;94.14;102162.28;5008068;28;20041;-64
2022/11/13 04:48:17;;;;;;;7.65;3.72;;;;;;;8.57;94.05;102162.28;5012532;28;20422;-65
2022/11/13 04:51:01;;;;;;;8.40;4.85;;;;;;;8.55;93.63;102167.16;5009499;28;20587;-65
2022/11/13 04:53:45;;;;;;;16.98;6.13;;;;;;;8.49;93.61;102163.00;5013405;28;20073;-65
2022/11/13 04:56:28;;;;;;;7.85;4.30;;;;;;;8.50;93.84;102160.00;5005398;28;20061;-65
2022/11/13 04:59:12;;;;;;;8.93;4.22;;;;;;;8.50;93.86;102167.25;5014912;28;20637;-65
2022/11/13 05:01:57;;;;;;;7.10;4.28;;;;;;;8.50;93.31;102165.38;5018119;28;20129;-65
2022/11/13 05:04:41;;;;;;;14.38;4.88;;;;;;;8.48;93.35;102156.06;4999357;28;20057;-65
2022/11/13 05:07:25;;;;;;;7.32;3.90;;;;;;;8.37;93.59;102154.66;5007820;28;20061;-65
2022/11/13 05:10:09;;;;;;;7.53;4.13;;;;;;;8.43;93.70;102154.28;5005469;28;20106;-65
2022/11/13 05:12:55;;;;;;;14.02;4.90;;;;;;;8.44;93.33;102161.22;5010209;28;20096;-65
2022/11/13 05:15:39;;;;;;;9.93;5.47;;;;;;;8.35;93.57;102157.66;5004279;28;20509;-64
2022/11/13 05:18:24;;;;;;;10.27;5.78;;;;;;;8.35;93.57;102151.50;5020657;28;20095;-65
2022/11/13 05:21:08;;;;;;;8.80;4.55;;;;;;;8.30;93.09;102154.31;5011407;28;20680;-65
2022/11/13 05:23:52;;;;;;;8.40;4.45;;;;;;;8.28;94.19;102159.97;5008830;28;20045;-65
2022/11/13 05:26:37;;;;;;;10.02;5.28;;;;;;;8.23;94.03;102154.66;5011671;28;20052;-65
2022/11/13 05:29:22;;;;;;;12.07;4.65;;;;;;;8.30;94.00;102147.06;5009477;28;20072;-65
2022/11/13 05:32:06;;;;;;;9.52;5.90;;;;;;;8.33;93.46;102145.63;5008107;28;20041;-65
2022/11/13 05:34:53;;;;;;;8.55;4.63;;;;;;;8.18;93.95;102144.06;5002542;28;20080;-65
2022/11/13 05:37:37;;;;;;;8.63;4.90;;;;;;;8.12;94.27;102142.59;5011124;28;20064;-65
2022/11/13 05:40:21;;;;;;;14.98;5.82;;;;;;;7.99;94.82;102143.41;5017554;28;20053;-65
2022/11/13 05:43:08;;;;;;;9.27;4.93;;;;;;;7.98;95.11;102139.13;5011301;28;20521;-65
2022/11/13 05:46:01;;;;;;;7.93;5.00;;;;;;;8.04;95.26;102141.41;5008547;28;20529;-65
2022/11/13 05:48:46;;;;;;;9.80;4.07;;;;;;;8.03;95.29;102139.03;5016494;28;20103;-65
2022/11/13 05:51:33;;;;;;;8.63;4.60;;;;;;;8.07;95.53;102142.69;5015347;28;20120;-65
2022/11/13 05:54:16;;;;;;;8.88;4.90;;;;;;;8.14;94.96;102135.03;5004859;28;20044;-65
2022/11/13 05:57:01;;;;;;;8.15;4.53;;;;;;;8.10;94.96;102139.41;5006751;28;20052;-65
2022/11/13 05:59:45;;;;;;;5.40;3.08;;;;;;;8.06;94.89;102141.09;5006434;28;20127;-64
2022/11/13 06:02:29;;;;;;;13.38;5.40;;;;;;;8.05;94.83;102134.94;5010714;28;20053;-65
2022/11/13 06:05:12;;;;;;;7.55;4.03;;;;;;;8.07;94.48;102131.97;5004220;28;20119;-65
2022/11/13 06:07:56;;;;;;;9.57;4.15;;;;;;;8.15;94.78;102126.66;5004380;28;20464;-65
2022/11/13 06:10:40;;;;;;;7.13;3.67;;;;;;;8.13;94.50;102122.69;5006354;28;20068;-65
2022/11/13 06:13:24;;;;;;;8.32;4.45;;;;;;;7.93;94.51;102115.09;5007736;28;20052;-65
2022/11/13 06:16:16;;;;;;;7.90;4.43;;;;;;;7.90;94.77;102105.75;5004912;28;20092;-65
2022/11/13 06:19:04;;;;;;;7.55;4.40;;;;;;;7.93;95.16;102109.72;5002421;28;20053;-65
2022/11/13 06:21:48;;;;;;;9.38;4.80;;;;;;;7.92;94.79;102106.25;5007318;28;20048;-65
2022/11/13 06:24:33;;;;;;;9.25;4.35;;;;;;;8.08;93.99;102110.19;4995621;28;21668;-65
2022/11/13 06:27:16;;;;;;;9.70;4.10;;;;;;;8.14;93.78;102110.88;5009738;28;20057;-65
2022/11/13 06:30:01;;;;;;;8.38;3.97;;;;;;;8.09;94.03;102108.31;5002306;28;20669;-65
2022/11/13 06:32:51;;;;;;;7.47;4.10;;;;;;;8.12;94.09;102111.19;4998726;28;20092;-65
2022/11/13 06:35:35;;;;;;;7.95;3.80;;;;;;;8.07;93.75;102108.59;5010156;28;20041;-65
2022/11/13 06:38:20;;;;;;;6.53;3.78;;;;;;;8.10;94.06;102101.84;5004259;28;20125;-65
2022/11/13 06:41:05;;;;;;;8.85;4.50;;;;;;;7.98;94.23;102106.94;5004624;28;20100;-64
2022/11/13 06:44:10;;;;;;;8.88;4.47;;;;;;;7.98;94.49;102104.25;4998282;28;20061;-65
2022/11/13 06:46:54;;;;;;;9.10;4.47;;;;;;;7.99;94.83;102108.53;4931676;29;20056;-65
2022/11/13 06:49:38;;;;;;;9.32;4.00;;;;;;;7.93;94.50;102118.59;4955982;28;20042;-65
2022/11/13 06:52:22;;;;;;;7.43;3.88;;;;;;;7.92;94.62;102119.66;4946070;29;20098;-65
2022/11/13 06:55:07;;;;;;;7.95;4.20;;;;;;;7.92;94.53;102121.53;4947272;28;20157;-65
2022/11/13 06:57:52;;;;;;;10.80;4.55;;;;;;;7.93;94.78;102117.78;4951599;28;20054;-65
2022/11/13 07:00:36;;;;;;;7.10;3.97;;;;;;;7.85;94.97;102121.16;4947800;28;20050;-65
2022/11/13 07:03:25;;;;;;;6.93;4.22;;;;;;;7.85;95.35;102121.16;4946731;28;20665;-65
2022/11/13 07:06:16;;;;;;;6.70;4.32;;;;;;;8.00;95.33;102137.72;4948239;28;20070;-65
2022/11/13 07:09:00;;;;;;;5.93;3.83;;;;;;;8.05;95.05;102132.25;4944696;28;20127;-65
2022/11/13 07:11:44;;;;;;;8.43;4.55;;;;;;;8.19;95.21;102121.50;4948092;28;20582;-65
2022/11/13 07:14:28;;;;;;;9.80;4.50;;;;;;;8.22;95.43;102131.63;4951358;28;20042;-65
2022/11/13 07:17:12;;;;;;;12.55;5.35;;;;;;;8.33;95.58;102122.28;4939830;28;20142;-65
2022/11/13 07:19:56;;;;;;;10.43;4.10;;;;;;;8.44;95.58;102123.63;4928187;28;20601;-65
2022/11/13 07:22:40;;;;;;;11.02;4.78;;;;;;;8.52;95.55;102114.06;4961627;28;20093;-65
2022/11/13 07:25:25;;;;;;;10.82;4.20;;;;;;;8.59;95.78;102115.25;5004963;28;20069;-65
2022/11/13 07:28:09;;;;;;;9.15;4.53;;;;;;;8.58;96.40;102104.78;5005992;28;20048;-65
2022/11/13 07:30:56;;;;;;;8.02;4.65;;;;;;;8.59;96.93;102120.63;5001494;28;20049;-65
2022/11/13 07:33:41;;;;;;;9.18;4.63;;;;;;;8.39;98.60;102115.72;5003719;28;20076;-65
2022/11/13 07:36:25;;;;;;;7.13;3.95;;;;;;;8.61;98.22;102123.00;5005365;28;20125;-65
2022/11/13 07:39:09;;;;;;;9.65;4.63;;;;;;;8.67;98.25;102122.53;5018812;28;20461;-65
2022/11/13 07:41:56;;;;;;;9.13;3.97;;;;;;;8.67;98.85;102119.09;5013069;28;20552;-65
2022/11/13 07:44:40;;;;;;;9.35;4.07;;;;;;;8.75;98.77;102129.09;5011792;28;20057;-65
2022/11/13 07:47:24;;;;;;;8.05;3.67;;;;;;;8.83;98.33;102129.13;5010979;28;20092;-65
2022/11/13 07:50:08;;;;;;;8.65;3.80;;;;;;;8.87;98.33;102134.69;5006853;28;20574;-65
2022/11/13 07:53:01;;;;;;;7.43;3.90;;;;;;;8.86;98.99;102131.22;5013473;28;20572;-65
2022/11/13 07:55:45;;;;;;;11.63;4.63;;;;;;;8.95;98.85;102137.44;5006605;28;20124;-65
2022/11/13 07:58:29;;;;;;;11.07;4.45;;;;;;;8.84;100.00;102144.19;5021867;28;20087;-64
2022/11/13 08:01:14;;;;;;;9.60;5.25;;;;;;;8.98;100.00;102141.41;5009877;28;20133;-64
2022/11/13 08:03:58;;;;;;;10.32;4.88;;;;;;;9.14;99.73;102134.53;5041279;23;20097;-73
2022/11/13 08:06:42;;;;;;;10.00;3.88;;;;;;;9.26;98.72;102134.75;5008648;28;20177;-72
2022/11/13 08:09:26;;;;;;;10.80;4.55;;;;;;;9.31;99.02;102139.22;5009422;28;20555;-73
2022/11/13 08:12:10;;;;;;;6.68;3.47;;;;;;;9.26;99.70;102129.38;5002656;28;20426;-72
2022/11/13 08:14:54;;;;;;;5.43;4.03;;;;;;;9.36;99.61;102129.13;4996471;28;20042;-72
2022/11/13 08:17:38;;;;;;;9.05;4.18;;;;;;;9.36;99.69;102133.69;4993328;28;20048;-72
2022/11/13 08:20:23;;;;;;;10.18;4.18;;;;;;;9.46;99.43;102141.50;4982458;28;20085;-72
2022/11/13 08:23:08;;;;;;;8.73;4.43;;;;;;;9.54;98.74;102135.38;4991530;28;20584;-72
2022/11/13 08:25:52;;;;;;;10.63;4.05;;;;;;;9.47;99.72;102135.00;4988827;28;20150;-73
2022/11/13 08:28:36;;;;;;;10.90;4.75;;;;;;;9.58;99.48;102147.09;4993205;28;20045;-72
2022/11/13 08:31:20;;;;;;;6.70;3.72;;;;;;;9.63;99.44;102139.69;4993121;28;20053;-72
2022/11/13 08:34:04;;;;;;;13.02;3.90;;;;;;;9.53;100.00;102147.22;4974982;28;20057;-73
2022/11/13 08:36:48;;;;;;;9.68;4.60;;;;;;;9.45;100.00;102132.63;4987573;28;20116;-72
2022/11/13 08:39:34;;;;;;;12.55;4.38;;;;;;;9.58;100.00;102134.41;4984165;28;20074;-72
2022/11/13 08:42:18;;;;;;;12.32;5.35;;;;;;;9.49;100.00;102125.53;4989374;28;20057;-71
2022/11/13 08:45:02;;;;;;;10.85;5.10;;;;;;;9.30;100.00;102126.88;4990039;28;20173;-71
2022/11/13 08:47:47;;;;;;;11.43;4.88;;;;;;;9.30;100.00;102118.81;4992054;28;20560;-71
2022/11/13 08:50:32;;;;;;;11.23;3.38;;;;;;;9.41;100.00;102126.28;4988440;28;20045;-71
2022/11/13 08:53:18;;;;;;;8.13;3.90;;;;;;;9.63;100.00;102128.13;4990130;28;20049;-71
2022/11/13 08:56:02;;;;;;;9.38;4.43;;;;;;;9.65;100.00;102120.53;4991211;28;20051;-71
2022/11/13 08:58:47;;;;;;;13.77;4.78;;;;;;;9.48;100.00;102118.59;4989884;28;20096;-71
2022/11/13 09:01:31;;;;;;;12.75;5.55;;;;;;;9.63;100.00;102128.13;4987424;28;20513;-71
2022/11/13 09:04:15;;;;;;;11.85;5.18;;;;;;;9.74;100.00;102130.22;4988479;28;20056;-71
2022/11/13 09:06:58;;;;;;;11.27;5.18;;;;;;;9.74;100.00;102129.41;4987807;28;20096;-71
2022/11/13 09:09:42;;;;;;;6.60;3.55;;;;;;;9.67;100.00;102132.56;4984063;28;20064;-70
2022/11/13 09:12:26;;;;;;;11.55;5.03;;;;;;;9.71;100.00;102130.03;4983472;28;20041;-70
2022/11/13 09:15:11;;;;;;;8.43;4.43;;;;;;;9.87;100.00;102133.91;4981155;28;20049;-72
2022/11/13 09:17:56;;;;;;;11.60;5.68;;;;;;;10.00;100.00;102141.03;4983337;28;20049;-71
2022/11/13 09:20:40;;;;;;;11.85;5.00;;;;;;;10.04;100.00;102145.47;4988391;28;20104;-71
2022/11/13 09:23:24;;;;;;;10.63;4.38;;;;;;;10.13;100.00;102144.72;4975767;28;20116;-71
2022/11/13 09:26:08;;;;;;;10.48;5.05;;;;;;;10.04;100.00;102150.84;4990138;28;20427;-71
2022/11/13 09:28:52;;;;;;;13.90;6.28;;;;;;;10.11;100.00;102147.72;4985383;28;20517;-71
2022/11/13 09:31:39;;;;;;;11.73;4.43;;;;;;;9.99;100.00;102158.28;4981991;28;20093;-71
2022/11/13 09:34:26;;;;;;;11.02;5.25;;;;;;;9.96;100.00;102142.78;4979346;28;20649;-71
2022/11/13 09:37:10;;;;;;;10.63;4.85;;;;;;;9.96;100.00;102148.16;4982469;28;20065;-70
2022/11/13 09:39:54;;;;;;;13.05;5.57;;;;;;;9.96;100.00;102140.09;4984076;28;20584;-70
2022/11/13 09:42:40;;;;;;;19.73;6.10;;;;;;;9.92;100.00;102145.31;4979521;28;20045;-70
2022/11/13 09:45:24;;;;;;;11.55;5.90;;;;;;;9.97;100.00;102144.34;4984530;28;20166;-71
2022/11/13 09:48:24;;;;;;;14.27;5.13;;;;;;;9.98;100.00;102145.94;4986588;28;20049;-71
2022/11/13 09:51:19;;;;;;;12.95;5.82;;;;;;;9.83;100.00;102141.00;4989480;28;20414;-70
2022/11/13 09:54:12;;;;;;;10.32;4.78;;;;;;;9.81;100.00;102138.59;4995955;28;20121;-71
2022/11/13 09:57:24;;;;;;;12.52;5.25;;;;;;;10.00;100.00;102151.81;4988659;28;20108;-70
2022/11/13 10:00:17;;;;;;;11.38;4.63;;;;;;;9.58;100.00;102153.25;4987699;28;20426;-71
2022/11/13 10:03:42;;;;;;;9.18;4.70;;;;;;;9.72;100.00;102145.88;4983140;28;20096;-71
2022/11/13 10:06:33;;;;;;;9.27;4.72;;;;;;;9.83;100.00;102141.78;4977447;28;20514;-71
2022/11/13 10:09:31;;;;;;;14.18;4.47;;;;;;;9.84;100.00;102134.50;4988515;28;20058;-70
2022/11/13 10:12:15;;;;;;;15.80;4.47;;;;;;;10.06;100.00;102145.19;4986393;28;20045;-71
2022/11/13 10:15:03;;;;;;;13.27;4.97;;;;;;;10.16;100.00;102142.22;4982382;28;20048;-72
2022/11/13 10:17:59;;;;;;;9.45;4.85;;;;;;;10.18;100.00;102148.06;4988447;28;20505;-72
2022/11/13 10:20:49;;;;;;;14.00;5.47;;;;;;;10.12;100.00;102143.16;4981420;28;20089;-72
2022/11/13 10:23:36;;;;;;;8.63;4.00;;;;;;;10.17;100.00;102140.28;4989627;28;20143;-72
2022/11/13 10:26:23;;;;;;;13.07;5.70;;;;;;;10.15;100.00;102140.63;4988351;28;20050;-71
2022/11/13 10:29:14;;;;;;;14.13;5.22;;;;;;;10.14;100.00;102127.47;4990053;28;20519;-70
2022/11/13 10:32:12;;;;;;;9.98;5.18;;;;;;;10.08;100.00;102134.88;4982907;28;20565;-70
2022/11/13 10:35:21;;;;;;;14.02;4.93;;;;;;;10.11;100.00;102134.28;4984530;28;20049;-70
2022/11/13 10:38:17;;;;;;;13.10;5.05;;;;;;;10.09;100.00;102125.69;4991368;28;20140;-71
2022/11/13 10:41:14;;;;;;;10.52;5.40;;;;;;;10.13;100.00;102129.38;4986060;28;20053;-70
2022/11/13 10:44:19;;;;;;;12.00;4.43;;;;;;;10.35;100.00;102123.06;4987025;28;20077;-72
2022/11/13 10:47:04;;;;;;;9.07;4.80;;;;;;;10.49;100.00;102119.09;4977827;28;20153;-71
2022/11/13 10:49:49;;;;;;;12.52;4.88;;;;;;;10.48;100.00;102111.31;4979268;28;20125;-73
2022/11/13 10:52:33;;;;;;;13.45;6.03;;;;;;;10.45;100.00;102112.75;4979288;28;20455;-70
2022/11/13 10:55:26;;;;;;;12.90;6.00;;;;;;;10.47;100.00;102109.75;4997118;28;20422;-71
2022/11/13 10:58:19;;;;;;;11.13;5.50;;;;;;;10.49;100.00;102107.53;4985826;28;20049;-70
2022/11/13 11:01:22;;;;;;;15.13;4.65;;;;;;;10.30;100.00;102110.53;4990105;28;20052;-72
2022/11/13 11:04:26;;;;;;;12.20;5.05;;;;;;;10.20;100.00;102100.06;4976940;28;20050;-72
2022/11/13 11:07:23;;;;;;;13.65;5.28;;;;;;;10.32;100.00;102089.47;4990811;28;20517;-72
2022/11/13 11:10:30;;;;;;;11.93;4.85;;;;;;;10.45;100.00;102091.19;4992438;28;20049;-72
2022/11/13 11:13:22;;;;;;;9.07;5.00;;;;;;;10.53;100.00;102086.94;4981321;28;20061;-73
2022/11/13 11:16:07;;;;;;;10.75;5.38;;;;;;;10.53;100.00;102082.31;4991259;28;20057;-73
2022/11/13 11:19:07;;;;;;;8.75;4.50;;;;;;;10.61;100.00;102076.13;4991869;28;20050;-73
2022/11/13 11:22:05;;;;;;;10.43;4.88;;;;;;;10.63;100.00;102071.22;4981049;28;20057;-71
2022/11/13 11:25:01;;;;;;;12.23;5.20;;;;;;;10.58;100.00;102067.91;4988061;28;20045;-71
2022/11/13 11:27:54;;;;;;;10.23;5.10;;;;;;;10.54;100.00;102054.28;4984312;28;20466;-71
2022/11/13 11:30:52;;;;;;;10.65;4.60;;;;;;;10.44;100.00;102051.13;4988050;28;20528;-71
2022/11/13 11:33:42;;;;;;;12.32;5.13;;;;;;;10.60;100.00;102061.09;4984091;28;20069;-71
2022/11/13 11:36:33;;;;;;;10.90;5.13;;;;;;;10.56;100.00;102052.06;4984014;28;20130;-70
2022/11/13 11:39:17;;;;;;;9.13;4.35;;;;;;;10.68;100.00;102052.19;4987686;28;20041;-71
2022/11/13 11:42:17;;;;;;;10.32;4.82;;;;;;;10.77;100.00;102042.19;4983292;28;20052;-71
2022/11/13 11:45:22;;;;;;;8.77;4.57;;;;;;;10.67;100.00;102049.81;4993252;28;20099;-71
2022/11/13 11:48:17;;;;;;;12.00;4.82;;;;;;;10.62;100.00;102053.50;4986626;28;20050;-71
2022/11/13 11:51:55;;;;;;;13.52;5.38;;;;;;;10.77;100.00;102044.91;4996789;28;20099;-72
2022/11/13 11:55:02;;;;;;;14.20;5.00;;;;;;;10.86;100.00;102036.78;4937857;28;20098;-72
2022/11/13 11:57:55;;;;;;;11.85;4.57;;;;;;;10.89;100.00;102031.56;4920176;29;20162;-71
2022/11/13 12:00:59;;;;;;;10.15;5.28;;;;;;;10.93;100.00;102037.09;4941281;29;20415;-72
2022/11/13 12:03:44;;;;;;;7.07;4.38;;;;;;;11.13;100.00;102030.19;4938164;28;20543;-72
2022/11/13 12:06:36;;;;;;;12.20;4.78;;;;;;;11.20;100.00;102028.56;4917773;29;20099;-72
2022/11/13 12:09:50;;;;;;;9.15;4.53;;;;;;;11.14;99.74;102020.97;4938395;29;20050;-72
2022/11/13 12:12:53;;;;;;;10.82;4.30;;;;;;;11.08;98.81;102025.75;4908813;29;20428;-71
2022/11/13 12:15:57;;;;;;;14.80;4.78;;;;;;;11.07;99.87;102020.69;4927837;29;20877;-72
2022/11/13 12:18:54;;;;;;;9.80;5.30;;;;;;;11.08;99.25;102014.19;4929185;29;20083;-71
2022/11/13 12:22:13;;;;;;;7.40;4.22;;;;;;;10.91;99.48;102009.66;4926696;29;20051;-72
2022/11/13 12:25:18;;;;;;;8.63;4.63;;;;;;;10.95;99.78;102009.81;4949908;28;20081;-71
2022/11/13 12:28:28;;;;;;;9.82;4.30;;;;;;;11.06;99.32;102009.13;4982170;28;20303;-71
2022/11/13 12:31:24;;;;;;;8.98;4.72;;;;;;;11.01;99.13;102001.22;4993390;28;20052;-71
2022/11/13 12:34:31;;;;;;;9.55;4.15;;;;;;;11.02;98.59;101996.59;4991162;28;20045;-72
2022/11/13 12:37:24;;;;;;;8.52;3.88;;;;;;;11.13;99.26;102004.00;4980409;28;20048;-72
2022/11/13 12:40:37;;;;;;;10.02;4.53;;;;;;;11.34;98.21;102009.47;4985812;28;20192;-71
2022/11/13 12:43:27;;;;;;;9.27;4.18;;;;;;;11.20;98.83;101998.91;4986966;28;20092;-72
2022/11/13 12:46:12;;;;;;;8.57;4.57;;;;;;;11.24;97.51;101999.03;4989973;28;20076;-71
2022/11/13 12:48:55;;;;;;;7.72;3.92;;;;;;;11.28;98.28;101992.69;4989442;28;20040;-71
2022/11/13 12:51:40;;;;;;;9.70;5.00;;;;;;;11.37;97.12;101992.59;4990107;28;20112;-72
2022/11/13 12:54:26;;;;;;;7.72;3.92;;;;;;;11.43;97.02;101981.31;4979042;28;20053;-71
2022/11/13 12:57:16;;;;;;;7.65;3.67;;;;;;;11.47;97.08;101989.53;4982854;28;20045;-72
2022/11/13 13:00:21;;;;;;;8.43;3.90;;;;;;;11.46;97.31;101990.63;4984762;28;20049;-71
2022/11/13 13:03:29;;;;;;;11.00;4.68;;;;;;;11.59;96.52;101976.13;4989857;28;20052;-72